createdAt,value
2019-04-09T00:00:36.156Z,72.74
2019-04-09T00:03:14.291Z,72.75
2019-04-09T00:05:45.939Z,72.49
2019-04-09T00:08:16.339Z,72.48
2019-04-09T00:10:49.177Z,72.39
2019-04-09T00:13:21.386Z,72.62
2019-04-09T00:15:51.817Z,72.79
2019-04-09T00:18:25.332Z,72.70
2019-04-09T00:20:57.722Z,72.89
2019-04-09T00:23:30.651Z,73.00
2019-04-09T00:26:03.813Z,72.83
2019-04-09T00:28:36.300Z,72.70
2019-04-09T00:31:10.011Z,72.95
2019-04-09T00:33:42.345Z,73.09
2019-04-09T00:36:17.519Z,73.03
2019-04-09T00:38:48.470Z,73.08
2019-04-09T00:41:23.053Z,73.20
2019-04-09T00:43:55.350Z,73.15
2019-04-09T00:46:28.434Z,73.06
2019-04-09T00:49:00.871Z,73.22
2019-04-09T00:51:33.031Z,73.18
2019-04-09T00:54:03.537Z,73.28
2019-04-09T00:56:36.087Z,73.47
2019-04-09T00:59:08.049Z,73.22
2019-04-09T01:01:39.453Z,73.31
2019-04-09T01:04:13.250Z,73.69
2019-04-09T01:06:45.607Z,73.77
2019-04-09T01:09:19.052Z,73.99
2019-04-09T01:11:52.669Z,74.11
2019-04-09T01:14:24.447Z,74.01
2019-04-09T01:16:58.399Z,74.38
2019-04-09T01:19:29.826Z,74.34
2019-04-09T01:22:01.773Z,74.35
2019-04-09T01:24:38.280Z,74.58
2019-04-09T01:27:18.165Z,74.57
2019-04-09T01:30:02.060Z,74.57
2019-04-09T01:32:51.746Z,74.82
2019-04-09T01:35:35.225Z,74.82
2019-04-09T01:38:28.740Z,74.98
2019-04-09T01:41:08.734Z,75.12
2019-04-09T01:44:00.582Z,75.06
2019-04-09T01:47:00.602Z,75.03
2019-04-09T01:49:44.225Z,75.28
2019-04-09T01:52:30.121Z,75.31
2019-04-09T01:55:18.011Z,75.56
2019-04-09T01:58:22.633Z,75.64
2019-04-09T02:01:07.467Z,75.66
2019-04-09T02:04:02.443Z,75.69
2019-04-09T02:07:08.077Z,75.72
2019-04-09T02:09:47.939Z,76.23
2019-04-09T02:12:30.854Z,76.44
2019-04-09T02:15:25.347Z,76.18
2019-04-09T02:18:24.406Z,75.96
2019-04-09T02:21:22.718Z,75.70
2019-04-09T02:24:07.285Z,75.68
2019-04-09T02:26:46.792Z,75.80
2019-04-09T02:29:47.330Z,75.87
2019-04-09T02:32:53.837Z,76.12
2019-04-09T02:35:45.356Z,75.91
2019-04-09T02:38:44.042Z,76.43
2019-04-09T02:41:28.360Z,76.21
2019-04-09T02:44:21.232Z,76.15
2019-04-09T02:47:03.112Z,76.35
2019-04-09T02:49:39.362Z,76.36
2019-04-09T02:52:31.741Z,76.37
2019-04-09T02:55:22.914Z,76.31
2019-04-09T02:58:25.632Z,76.37
2019-04-09T03:01:04.484Z,76.72
2019-04-09T03:03:53.595Z,76.74
2019-04-09T03:06:55.701Z,76.65
2019-04-09T03:09:55.825Z,76.67
2019-04-09T03:12:45.533Z,76.58
2019-04-09T03:15:49.726Z,76.66
2019-04-09T03:18:47.599Z,76.53
2019-04-09T03:21:32.238Z,76.97
2019-04-09T03:24:35.838Z,77.10
2019-04-09T03:27:28.630Z,77.15
2019-04-09T03:30:23.063Z,77.38
2019-04-09T03:33:20.965Z,77.58
2019-04-09T03:36:29.409Z,77.65
2019-04-09T03:39:25.875Z,77.54
2019-04-09T03:42:20.020Z,77.95
2019-04-09T03:45:10.779Z,78.30
2019-04-09T03:48:06.684Z,77.56
2019-04-09T03:51:17.015Z,77.91
2019-04-09T03:54:02.041Z,77.65
2019-04-09T03:56:55.889Z,77.57
2019-04-09T03:59:45.903Z,78.08
2019-04-09T04:02:27.951Z,78.14
2019-04-09T04:05:18.071Z,78.62
2019-04-09T04:07:56.243Z,78.39
2019-04-09T04:10:59.245Z,78.81
2019-04-09T04:13:48.887Z,78.67
2019-04-09T04:16:40.229Z,78.70
2019-04-09T04:19:29.867Z,78.58
2019-04-09T04:22:19.317Z,78.48
2019-04-09T04:25:20.100Z,78.50
2019-04-09T04:28:33.412Z,78.44
2019-04-09T04:31:23.767Z,78.39
2019-04-09T04:34:13.041Z,78.56
2019-04-09T04:37:04.382Z,78.31
2019-04-09T04:39:57.528Z,78.38
2019-04-09T04:42:57.103Z,78.69
2019-04-09T04:45:56.493Z,78.51
2019-04-09T04:48:51.969Z,77.86
2019-04-09T04:51:53.165Z,77.84
2019-04-09T04:54:48.291Z,77.79
2019-04-09T04:57:56.316Z,77.81
2019-04-09T05:00:56.243Z,77.85
2019-04-09T05:03:41.917Z,77.57
2019-04-09T05:06:50.536Z,77.16
2019-04-09T05:09:41.622Z,77.05
2019-04-09T05:12:44.290Z,76.61
2019-04-09T05:15:36.507Z,76.55
2019-04-09T05:18:27.085Z,75.79
2019-04-09T05:21:18.470Z,75.46
2019-04-09T05:24:10.037Z,75.19
2019-04-09T05:26:54.467Z,75.19
2019-04-09T05:29:42.963Z,74.86
2019-04-09T05:32:33.931Z,74.84
2019-04-09T05:35:11.311Z,74.55
2019-04-09T05:37:57.486Z,74.41
2019-04-09T05:40:37.354Z,74.20
2019-04-09T05:43:28.020Z,73.69
2019-04-09T05:46:17.692Z,73.58
2019-04-09T05:49:24.223Z,73.46
2019-04-09T05:52:14.885Z,73.02
2019-04-09T05:55:11.922Z,73.06
2019-04-09T05:57:54.992Z,72.93
2019-04-09T06:00:36.629Z,72.58
2019-04-09T06:03:15.886Z,72.24
2019-04-09T06:05:57.825Z,71.87
2019-04-09T06:09:01.833Z,71.66
2019-04-09T06:11:33.855Z,71.48
2019-04-09T06:14:06.817Z,70.72
2019-04-09T06:16:39.986Z,69.72
2019-04-09T06:19:12.976Z,69.19
2019-04-09T06:21:46.779Z,68.70
2019-04-09T06:24:18.935Z,68.82
2019-04-09T06:26:52.845Z,68.31
2019-04-09T06:29:26.224Z,67.06
2019-04-09T06:32:01.047Z,67.05
2019-04-09T06:34:51.320Z,66.46
2019-04-09T06:37:35.693Z,65.62
2019-04-09T06:40:26.297Z,66.00
2019-04-09T06:43:15.479Z,66.60
2019-04-09T06:46:08.501Z,66.25
2019-04-09T06:48:54.331Z,65.62
2019-04-09T06:51:42.608Z,65.13
2019-04-09T06:54:31.012Z,64.20
2019-04-09T06:57:38.114Z,64.21
2019-04-09T07:00:20.098Z,64.24
2019-04-09T07:03:13.445Z,63.74
2019-04-09T07:06:01.966Z,62.97
2019-04-09T07:08:51.876Z,62.71
2019-04-09T07:11:42.638Z,62.19
2019-04-09T07:14:34.917Z,61.73
2019-04-09T07:17:25.134Z,61.24
2019-04-09T07:20:19.139Z,61.11
2019-04-09T07:23:08.307Z,60.59
2019-04-09T07:26:05.127Z,60.46
2019-04-09T07:29:00.930Z,59.90
2019-04-09T07:32:01.906Z,59.79
2019-04-09T07:35:05.070Z,59.60
2019-04-09T07:38:06.118Z,59.11
2019-04-09T07:41:06.142Z,58.52
2019-04-09T07:43:49.315Z,57.56
2019-04-09T07:46:26.252Z,57.28
2019-04-09T07:49:15.802Z,56.77
2019-04-09T07:52:08.731Z,56.28
2019-04-09T07:55:04.880Z,55.96
2019-04-09T07:57:58.980Z,55.88
2019-04-09T08:01:00.005Z,56.20
2019-04-09T08:03:59.680Z,55.89
2019-04-09T08:07:02.303Z,55.38
2019-04-09T08:09:40.166Z,55.10
2019-04-09T08:12:25.035Z,54.23
2019-04-09T08:15:36.247Z,53.96
2019-04-09T08:18:38.262Z,53.47
2019-04-09T08:21:16.439Z,52.90
2019-04-09T08:24:15.598Z,52.65
2019-04-09T08:27:03.786Z,52.09
2019-04-09T08:29:44.994Z,52.07
2019-04-09T08:32:41.171Z,51.63
2019-04-09T08:35:37.628Z,51.22
2019-04-09T08:38:29.609Z,51.02
2019-04-09T08:41:20.866Z,50.33
2019-04-09T08:44:10.492Z,49.73
2019-04-09T08:47:01.647Z,49.43
2019-04-09T08:49:51.972Z,49.07
2019-04-09T08:52:42.191Z,49.03
2019-04-09T08:55:35.614Z,48.42
2019-04-09T08:58:22.707Z,48.62
2019-04-09T09:04:06.012Z,47.91
2019-04-09T09:06:52.128Z,47.36
2019-04-09T09:09:49.266Z,46.96
2019-04-09T09:12:40.140Z,47.19
2019-04-09T09:15:22.394Z,46.88
2019-04-09T09:17:59.270Z,44.46
2019-04-09T09:20:48.975Z,45.15
2019-04-09T09:23:36.984Z,45.19
2019-04-09T09:26:21.971Z,45.85
2019-04-09T09:29:17.495Z,45.40
2019-04-09T09:32:03.828Z,44.92
2019-04-09T09:35:02.988Z,42.92
2019-04-09T09:37:56.334Z,43.61
2019-04-09T09:40:36.766Z,43.40
2019-04-09T09:43:33.526Z,43.05
2019-04-09T09:46:22.373Z,43.06
2019-04-09T09:49:12.485Z,43.10
2019-04-09T09:52:21.831Z,42.90
2019-04-09T09:55:15.467Z,42.60
2019-04-09T09:58:09.037Z,42.69
2019-04-09T10:01:08.135Z,42.86
2019-04-09T10:03:45.363Z,40.77
2019-04-09T10:06:26.458Z,40.16
2019-04-09T10:09:14.273Z,40.12
2019-04-09T10:11:56.924Z,39.69
2019-04-09T10:14:54.447Z,38.56
2019-04-09T10:18:01.159Z,38.27
2019-04-09T10:20:47.942Z,38.36
2019-04-09T10:23:37.660Z,37.71
2019-04-09T10:26:36.511Z,38.61
2019-04-09T10:29:25.965Z,37.47
2019-04-09T10:32:21.729Z,38.56
2019-04-09T10:35:17.231Z,38.12
2019-04-09T10:38:17.138Z,37.31
2019-04-09T10:41:37.294Z,37.89
2019-04-09T10:44:20.989Z,37.30
2019-04-09T10:47:00.163Z,36.95
2019-04-09T10:49:47.185Z,36.32
2019-04-09T10:52:51.666Z,34.74
2019-04-09T10:55:45.056Z,33.65
2019-04-09T10:58:30.635Z,32.87
2019-04-09T11:01:15.406Z,32.82
2019-04-09T11:04:13.610Z,32.59
2019-04-09T11:07:10.488Z,32.15
2019-04-09T11:10:00.436Z,31.81
2019-04-09T11:12:56.882Z,32.16
2019-04-09T11:15:59.694Z,32.95
2019-04-09T11:18:45.937Z,32.78
2019-04-09T11:21:40.836Z,32.78
2019-04-09T11:24:31.484Z,32.10
2019-04-09T11:27:26.393Z,31.72
2019-04-09T11:30:10.660Z,32.11
2019-04-09T11:33:01.224Z,32.52
2019-04-09T11:36:03.198Z,31.95
2019-04-09T11:39:00.097Z,31.71
2019-04-09T11:41:50.771Z,31.40
2019-04-09T11:44:56.082Z,31.48
2019-04-09T11:47:55.272Z,30.96
2019-04-09T11:50:47.252Z,31.60
2019-04-09T11:53:44.021Z,31.50
2019-04-09T11:56:44.245Z,31.65
2019-04-09T11:59:47.051Z,31.24
2019-04-09T12:02:43.009Z,30.73
2019-04-09T12:05:32.225Z,30.94
2019-04-09T12:08:39.205Z,31.01
2019-04-09T12:11:35.149Z,30.47
2019-04-09T12:14:24.852Z,30.49
2019-04-09T12:17:08.223Z,30.14
2019-04-09T12:20:04.306Z,29.37
2019-04-09T12:23:08.622Z,28.88
2019-04-09T12:25:49.054Z,29.54
2019-04-09T12:28:35.183Z,28.69
2019-04-09T12:31:32.539Z,28.28
2019-04-09T12:34:20.884Z,28.04
2019-04-09T12:37:07.036Z,27.65
2019-04-09T12:40:00.186Z,27.36
2019-04-09T12:43:25.138Z,28.01
2019-04-09T12:46:49.351Z,29.30
2019-04-09T12:50:13.881Z,29.10
2019-04-09T12:53:01.982Z,28.86
2019-04-09T12:55:50.799Z,28.38
2019-04-09T12:58:33.190Z,28.16
2019-04-09T13:01:33.090Z,27.63
2019-04-09T13:04:23.969Z,28.31
2019-04-09T13:07:04.003Z,28.47
2019-04-09T13:09:48.922Z,28.75
2019-04-09T13:12:42.393Z,29.34
2019-04-09T13:15:36.517Z,29.14
2019-04-09T13:18:35.547Z,28.70
2019-04-09T13:21:37.649Z,28.17
2019-04-09T13:24:18.922Z,27.61
2019-04-09T13:27:08.776Z,27.35
2019-04-09T13:30:09.410Z,27.70
2019-04-09T13:33:18.328Z,27.26
2019-04-09T13:36:15.890Z,27.75
2019-04-09T13:39:07.290Z,28.02
2019-04-09T13:41:53.962Z,28.04
2019-04-09T13:44:45.818Z,27.33
2019-04-09T13:47:23.591Z,27.42
2019-04-09T13:50:29.676Z,27.21
2019-04-09T13:53:02.616Z,26.94
2019-04-09T13:55:34.529Z,27.23
2019-04-09T13:58:05.057Z,27.75
2019-04-09T14:00:36.088Z,28.10
2019-04-09T14:03:36.800Z,28.99
2019-04-09T14:06:02.495Z,29.38
2019-04-09T14:08:35.221Z,28.73
2019-04-09T14:11:06.269Z,28.12
2019-04-09T14:13:38.227Z,27.03
2019-04-09T14:16:11.146Z,26.30
2019-04-09T14:18:44.235Z,26.60
2019-04-09T14:21:17.208Z,27.61
2019-04-09T14:23:50.422Z,26.58
2019-04-09T14:26:22.511Z,26.36
2019-04-09T14:28:52.894Z,26.46
2019-04-09T14:31:24.206Z,26.07
2019-04-09T14:33:56.195Z,25.11
2019-04-09T14:36:29.258Z,25.13
2019-04-09T14:39:02.143Z,24.21
2019-04-09T14:41:33.097Z,23.77
2019-04-09T14:44:05.782Z,23.49
2019-04-09T14:46:38.280Z,23.35
2019-04-09T14:49:11.932Z,23.93
2019-04-09T14:51:44.122Z,23.93
2019-04-09T14:54:15.159Z,23.81
2019-04-09T14:56:47.973Z,23.52
2019-04-09T14:59:20.325Z,23.36
2019-04-09T15:01:53.270Z,22.37
2019-04-09T15:04:26.196Z,22.15
2019-04-09T15:06:59.321Z,22.12
2019-04-09T15:09:32.270Z,22.39
2019-04-09T15:12:05.456Z,21.89
2019-04-09T15:14:38.152Z,21.88
2019-04-09T15:17:11.880Z,21.68
2019-04-09T15:19:44.216Z,22.18
2019-04-09T15:22:18.937Z,21.72
2019-04-09T15:24:51.042Z,21.35
2019-04-09T15:27:23.779Z,21.29
2019-04-09T15:29:56.520Z,21.28
2019-04-09T15:32:29.432Z,21.96
2019-04-09T15:35:03.459Z,23.26
2019-04-09T15:37:35.495Z,23.46
2019-04-09T15:40:09.220Z,24.18
2019-04-09T15:42:42.080Z,24.02
2019-04-09T15:45:16.445Z,23.92
2019-04-09T15:47:47.567Z,23.62
2019-04-09T15:50:20.510Z,24.42
2019-04-09T15:52:52.101Z,24.99
2019-04-09T15:55:23.473Z,24.85
2019-04-09T15:57:56.624Z,24.50
2019-04-09T16:00:28.544Z,23.59
2019-04-09T16:02:59.806Z,23.41
2019-04-09T16:05:32.460Z,23.21
2019-04-09T16:08:03.610Z,23.37
2019-04-09T16:10:35.570Z,23.37
2019-04-09T16:13:08.628Z,23.65
2019-04-09T16:15:41.660Z,23.95
2019-04-09T16:18:17.766Z,23.94
2019-04-09T16:20:47.180Z,24.08
2019-04-09T16:23:22.895Z,24.52
2019-04-09T16:25:54.357Z,24.96
2019-04-09T16:28:25.681Z,25.43
2019-04-09T16:30:57.870Z,25.68
2019-04-09T16:33:32.619Z,26.07
2019-04-09T16:36:05.702Z,26.38
2019-04-09T16:38:37.633Z,27.05
2019-04-09T16:41:09.702Z,27.46
2019-04-09T16:43:42.854Z,27.94
2019-04-09T16:46:14.691Z,28.39
2019-04-09T16:48:45.763Z,28.77
2019-04-09T16:51:18.451Z,28.80
2019-04-09T16:53:49.771Z,29.25
2019-04-09T16:56:21.470Z,29.31
2019-04-09T16:58:53.395Z,29.54
2019-04-09T17:01:23.779Z,29.96
2019-04-09T17:04:10.429Z,30.51
2019-04-09T17:06:31.033Z,31.19
2019-04-09T17:09:19.990Z,31.64
2019-04-09T17:11:37.032Z,32.10
2019-04-09T17:14:09.747Z,32.49
2019-04-09T17:16:41.780Z,33.17
2019-04-09T17:19:15.003Z,33.37
2019-04-09T17:21:47.895Z,33.86
2019-04-09T17:24:18.886Z,34.16
2019-04-09T17:26:51.780Z,34.36
2019-04-09T17:29:22.965Z,34.91
2019-04-09T17:31:53.542Z,35.33
2019-04-09T17:34:32.580Z,35.67
2019-04-09T17:36:58.792Z,35.99
2019-04-09T17:39:30.294Z,36.22
2019-04-09T17:42:08.418Z,36.39
2019-04-09T17:44:35.438Z,36.67
2019-04-09T17:47:07.717Z,36.95
2019-04-09T17:49:41.741Z,37.25
2019-04-09T17:52:16.759Z,37.26
2019-04-09T17:54:48.425Z,37.36
2019-04-09T17:57:19.984Z,37.82
2019-04-09T17:59:52.978Z,38.31
2019-04-09T18:02:26.505Z,38.65
2019-04-09T18:04:59.159Z,38.94
2019-04-09T18:07:30.135Z,39.55
2019-04-09T18:10:04.290Z,39.70
2019-04-09T18:12:35.144Z,40.08
2019-04-09T18:15:09.371Z,39.88
2019-04-09T18:17:42.009Z,40.34
2019-04-09T18:20:14.203Z,41.03
2019-04-09T18:22:45.424Z,41.79
2019-04-09T18:25:17.211Z,42.68
2019-04-09T18:27:50.161Z,43.39
2019-04-09T18:30:24.244Z,44.10
2019-04-09T18:32:56.195Z,44.79
2019-04-09T18:35:30.133Z,45.47
2019-04-09T18:38:06.326Z,46.18
2019-04-09T18:40:39.104Z,46.86
2019-04-09T18:43:11.292Z,47.44
2019-04-09T18:45:44.477Z,47.71
2019-04-09T18:48:28.878Z,48.42
2019-04-09T18:50:50.939Z,48.98
2019-04-09T18:53:23.386Z,49.51
2019-04-09T18:55:54.989Z,49.86
2019-04-09T18:58:27.045Z,50.24
2019-04-09T19:01:00.165Z,50.51
2019-04-09T19:03:32.662Z,50.86
2019-04-09T19:06:05.467Z,50.98
2019-04-09T19:08:46.899Z,51.42
2019-04-09T19:11:23.893Z,51.66
2019-04-09T19:13:58.200Z,52.12
2019-04-09T19:16:30.530Z,52.29
2019-04-09T19:19:02.483Z,52.94
2019-04-09T19:21:35.319Z,53.32
2019-04-09T19:24:06.728Z,53.44
2019-04-09T19:26:38.350Z,53.69
2019-04-09T19:29:12.703Z,53.77
2019-04-09T19:31:45.290Z,53.83
2019-04-09T19:34:19.009Z,53.86
2019-04-09T19:36:50.540Z,54.35
2019-04-09T19:39:24.068Z,54.47
2019-04-09T19:42:04.706Z,54.99
2019-04-09T19:44:27.421Z,55.21
2019-04-09T19:47:00.693Z,55.11
2019-04-09T19:49:31.639Z,55.52
2019-04-09T19:52:02.666Z,55.69
2019-04-09T19:54:33.656Z,55.95
2019-04-09T19:57:06.011Z,56.08
2019-04-09T19:59:37.739Z,56.09
2019-04-09T20:02:10.641Z,56.22
2019-04-09T20:04:43.452Z,56.17
2019-04-09T20:07:14.607Z,56.47
2019-04-09T20:09:47.053Z,56.54
2019-04-09T20:12:17.704Z,56.69
2019-04-09T20:14:51.348Z,56.79
2019-04-09T20:17:23.808Z,57.05
2019-04-09T20:19:57.555Z,57.24
2019-04-09T20:22:31.596Z,57.26
2019-04-09T20:25:03.055Z,57.50
2019-04-09T20:27:37.025Z,57.93
2019-04-09T20:30:09.858Z,57.89
2019-04-09T20:32:43.034Z,57.95
2019-04-09T20:35:16.536Z,58.25
2019-04-09T20:37:49.073Z,58.56
2019-04-09T20:40:21.722Z,58.44
2019-04-09T20:42:53.280Z,58.56
2019-04-09T20:45:26.822Z,58.57
2019-04-09T20:48:01.231Z,58.66
2019-04-09T20:50:33.456Z,59.03
2019-04-09T20:53:05.770Z,58.93
2019-04-09T20:55:38.936Z,59.09
2019-04-09T20:58:12.754Z,59.14
2019-04-09T21:01:07.181Z,59.40
2019-04-09T21:03:57.701Z,59.66
2019-04-09T21:06:30.927Z,59.48
2019-04-09T21:09:04.448Z,59.75
2019-04-09T21:11:35.885Z,60.06
2019-04-09T21:14:07.558Z,60.02
2019-04-09T21:16:39.037Z,60.61
2019-04-09T21:19:12.168Z,60.23
2019-04-09T21:21:45.619Z,60.66
2019-04-09T21:24:18.065Z,60.81
2019-04-09T21:26:50.948Z,60.80
2019-04-09T21:29:24.402Z,60.79
2019-04-09T21:31:57.829Z,61.14
2019-04-09T21:34:35.177Z,61.11
2019-04-09T21:37:26.136Z,61.01
2019-04-09T21:40:00.224Z,61.29
2019-04-09T21:42:33.094Z,61.35
2019-04-09T21:45:06.241Z,61.49
2019-04-09T21:47:39.069Z,61.51
2019-04-09T21:50:12.834Z,61.58
2019-04-09T21:52:46.609Z,61.91
2019-04-09T21:55:18.172Z,62.00
2019-04-09T21:57:49.665Z,62.03
2019-04-09T22:00:27.005Z,62.19
2019-04-09T22:03:00.804Z,62.36
2019-04-09T22:05:34.255Z,62.65
2019-04-09T22:08:07.815Z,62.55
2019-04-09T22:10:40.185Z,62.59
2019-04-09T22:13:12.336Z,62.38
2019-04-09T22:15:45.256Z,62.56
2019-04-09T22:18:22.038Z,62.32
2019-04-09T22:20:51.957Z,62.01
2019-04-09T22:23:24.395Z,62.31
2019-04-09T22:25:56.890Z,62.46
2019-04-09T22:28:28.150Z,62.68
2019-04-09T22:31:01.311Z,62.47
2019-04-09T22:33:33.263Z,62.35
2019-04-09T22:36:06.302Z,62.37
2019-04-09T22:38:39.586Z,62.43
2019-04-09T22:41:12.337Z,62.49
2019-04-09T22:43:43.318Z,62.48
2019-04-09T22:46:15.386Z,62.48
2019-04-09T22:48:48.657Z,62.68
2019-04-09T22:51:21.241Z,63.14
2019-04-09T22:53:52.739Z,63.11
2019-04-09T22:56:24.258Z,63.50
2019-04-09T22:58:59.439Z,63.60
2019-04-09T23:01:43.134Z,63.39
2019-04-09T23:04:33.901Z,63.40
2019-04-09T23:07:17.061Z,63.52
2019-04-09T23:09:55.237Z,64.07
2019-04-09T23:12:36.287Z,63.95
2019-04-09T23:15:14.163Z,63.70
2019-04-09T23:17:44.587Z,63.57
2019-04-09T23:20:18.625Z,63.66
2019-04-09T23:22:50.819Z,63.62
2019-04-09T23:25:24.468Z,63.82
2019-04-09T23:28:05.641Z,63.93
2019-04-09T23:30:41.897Z,63.98
2019-04-09T23:33:14.703Z,64.46
2019-04-09T23:35:52.283Z,64.58
2019-04-09T23:38:28.489Z,64.77
2019-04-09T23:41:04.102Z,64.62
2019-04-09T23:44:03.418Z,64.59
2019-04-09T23:46:39.368Z,64.98
2019-04-09T23:49:10.642Z,65.10
2019-04-09T23:51:41.790Z,65.44
2019-04-09T23:54:14.700Z,65.41
2019-04-09T23:56:47.718Z,65.11
2019-04-09T23:59:20.771Z,65.19
